createdAt,value
2018-08-09T00:01:06.494Z,50.38
2018-08-09T00:03:34.683Z,50.45
2018-08-09T00:06:02.843Z,49.95
2018-08-09T00:08:31.061Z,50.20
2018-08-09T00:10:59.425Z,50.83
2018-08-09T00:13:27.565Z,50.27
2018-08-09T00:15:55.805Z,50.97
2018-08-09T00:18:24.173Z,50.78
2018-08-09T00:20:52.827Z,51.11
2018-08-09T00:23:21.029Z,50.72
2018-08-09T00:25:49.344Z,51.51
2018-08-09T00:28:17.578Z,51.38
2018-08-09T00:30:45.802Z,51.55
2018-08-09T00:33:14.098Z,51.39
2018-08-09T00:35:42.405Z,51.31
2018-08-09T00:38:10.747Z,51.90
2018-08-09T00:40:38.999Z,51.73
2018-08-09T00:43:07.348Z,51.72
2018-08-09T00:45:35.706Z,52.12
2018-08-09T00:48:03.966Z,52.03
2018-08-09T00:50:32.304Z,51.96
2018-08-09T00:53:00.597Z,52.33
2018-08-09T00:55:29.047Z,52.46
2018-08-09T00:57:57.454Z,52.15
2018-08-09T01:00:25.712Z,52.61
2018-08-09T01:02:53.978Z,52.83
2018-08-09T01:05:22.192Z,52.21
2018-08-09T01:07:50.504Z,52.50
2018-08-09T01:10:18.598Z,52.44
2018-08-09T01:12:46.684Z,52.59
2018-08-09T01:15:14.908Z,52.93
2018-08-09T01:17:43.190Z,53.48
2018-08-09T01:20:11.533Z,53.11
2018-08-09T01:22:40.770Z,53.05
2018-08-09T01:25:09.030Z,52.90
2018-08-09T01:27:37.136Z,53.66
2018-08-09T01:30:05.325Z,53.32
2018-08-09T01:32:33.549Z,53.46
2018-08-09T01:35:01.789Z,53.82
2018-08-09T01:37:30.581Z,53.70
2018-08-09T01:39:58.753Z,54.07
2018-08-09T01:42:44.067Z,53.47
2018-08-09T01:45:12.954Z,54.02
2018-08-09T01:47:41.081Z,53.85
2018-08-09T01:50:09.253Z,53.86
2018-08-09T01:52:38.105Z,53.97
2018-08-09T01:55:06.281Z,53.82
2018-08-09T01:57:34.458Z,54.18
2018-08-09T02:00:02.738Z,54.35
2018-08-09T02:02:31.063Z,54.33
2018-08-09T02:04:59.484Z,55.40
2018-08-09T02:07:27.813Z,55.50
2018-08-09T02:09:56.192Z,55.08
2018-08-09T02:12:24.515Z,55.80
2018-08-09T02:14:52.741Z,55.91
2018-08-09T02:17:21.037Z,55.65
2018-08-09T02:19:49.189Z,56.04
2018-08-09T02:22:17.538Z,56.56
2018-08-09T02:24:45.589Z,55.90
2018-08-09T02:27:20.695Z,55.94
2018-08-09T02:29:48.841Z,56.78
2018-08-09T02:32:17.181Z,56.32
2018-08-09T02:34:45.272Z,57.11
2018-08-09T02:37:13.466Z,57.23
2018-08-09T02:39:42.232Z,56.67
2018-08-09T02:42:10.301Z,56.65
2018-08-09T02:44:38.577Z,56.39
2018-08-09T02:47:06.677Z,57.53
2018-08-09T02:49:34.896Z,57.08
2018-08-09T02:52:03.212Z,57.72
2018-08-09T02:54:32.510Z,57.48
2018-08-09T02:57:00.676Z,57.85
2018-08-09T02:59:29.258Z,58.87
2018-08-09T03:01:57.492Z,59.22
2018-08-09T03:04:25.734Z,59.00
2018-08-09T03:06:53.980Z,59.13
2018-08-09T03:09:22.151Z,58.83
2018-08-09T03:11:50.397Z,59.73
2018-08-09T03:14:21.416Z,59.50
2018-08-09T03:16:49.562Z,59.47
2018-08-09T03:19:17.730Z,59.47
2018-08-09T03:21:46.006Z,60.04
2018-08-09T03:24:14.204Z,60.38
2018-08-09T03:26:42.392Z,59.49
2018-08-09T03:29:11.102Z,60.18
2018-08-09T03:31:39.354Z,60.41
2018-08-09T03:34:07.488Z,60.32
2018-08-09T03:36:35.696Z,59.45
2018-08-09T03:39:06.593Z,59.68
2018-08-09T03:41:35.630Z,60.19
2018-08-09T03:44:03.950Z,60.34
2018-08-09T03:46:32.021Z,59.76
2018-08-09T03:49:00.257Z,60.06
2018-08-09T03:51:28.378Z,60.27
2018-08-09T03:53:56.796Z,60.86
2018-08-09T03:56:24.978Z,60.89
2018-08-09T03:58:53.247Z,60.64
2018-08-09T04:01:21.396Z,61.03
2018-08-09T04:03:49.489Z,60.28
2018-08-09T04:06:17.577Z,61.01
2018-08-09T04:08:45.861Z,61.43
2018-08-09T04:11:14.285Z,60.41
2018-08-09T04:13:42.509Z,61.21
2018-08-09T04:16:10.843Z,60.45
2018-08-09T04:18:39.047Z,60.68
2018-08-09T04:21:07.179Z,60.77
2018-08-09T04:23:35.443Z,60.35
2018-08-09T04:26:03.693Z,60.18
2018-08-09T04:28:31.917Z,59.74
2018-08-09T04:31:00.239Z,60.42
2018-08-09T04:33:28.387Z,59.37
2018-08-09T04:35:56.701Z,60.39
2018-08-09T04:38:24.925Z,59.41
2018-08-09T04:40:53.187Z,59.62
2018-08-09T04:43:21.433Z,59.84
2018-08-09T04:45:49.667Z,59.40
2018-08-09T04:48:17.887Z,59.42
2018-08-09T04:50:46.188Z,59.20
2018-08-09T04:53:14.411Z,59.19
2018-08-09T04:55:42.963Z,59.08
2018-08-09T04:58:11.249Z,59.21
2018-08-09T05:00:39.452Z,59.02
2018-08-09T05:03:07.655Z,58.59
2018-08-09T05:05:35.962Z,58.45
2018-08-09T05:08:04.880Z,58.82
2018-08-09T05:10:33.198Z,58.74
2018-08-09T05:13:01.337Z,58.09
2018-08-09T05:15:29.478Z,58.61
2018-08-09T05:17:58.596Z,58.06
2018-08-09T05:20:27.030Z,57.09
2018-08-09T05:22:55.215Z,56.94
2018-08-09T05:25:23.600Z,57.63
2018-08-09T05:27:51.731Z,57.20
2018-08-09T05:30:20.196Z,57.06
2018-08-09T05:32:48.529Z,56.82
2018-08-09T05:35:16.860Z,55.57
2018-08-09T05:37:45.058Z,53.84
2018-08-09T05:40:13.350Z,52.43
2018-08-09T05:42:41.718Z,52.24
2018-08-09T05:45:09.884Z,50.33
2018-08-09T05:47:38.166Z,48.83
2018-08-09T05:50:06.984Z,47.51
2018-08-09T05:52:35.174Z,45.81
2018-08-09T05:55:03.371Z,44.57
2018-08-09T05:57:31.575Z,44.50
2018-08-09T05:59:59.686Z,43.37
2018-08-09T06:02:27.908Z,41.84
2018-08-09T06:04:56.109Z,41.25
2018-08-09T06:07:24.412Z,40.91
2018-08-09T06:09:52.660Z,40.21
2018-08-09T06:12:20.855Z,38.43
2018-08-09T06:14:49.202Z,38.31
2018-08-09T06:17:17.377Z,37.14
2018-08-09T06:19:45.653Z,37.01
2018-08-09T06:22:13.767Z,35.08
2018-08-09T06:24:42.051Z,35.74
2018-08-09T06:27:10.293Z,35.48
2018-08-09T06:29:38.500Z,33.81
2018-08-09T06:32:06.780Z,32.63
2018-08-09T06:34:35.037Z,31.99
2018-08-09T06:37:03.266Z,31.40
2018-08-09T06:39:31.571Z,32.88
2018-08-09T06:41:59.705Z,32.23
2018-08-09T06:44:28.015Z,31.03
2018-08-09T06:46:56.529Z,30.46
2018-08-09T06:49:24.891Z,29.58
2018-08-09T06:51:53.144Z,28.89
2018-08-09T06:54:21.373Z,28.47
2018-08-09T06:56:49.661Z,28.51
2018-08-09T06:59:17.879Z,28.30
2018-08-09T07:01:46.096Z,26.68
2018-08-09T07:04:14.300Z,26.52
2018-08-09T07:06:42.621Z,27.34
2018-08-09T07:09:11.535Z,26.01
2018-08-09T07:11:39.709Z,25.42
2018-08-09T07:14:07.945Z,23.88
2018-08-09T07:16:36.197Z,23.45
2018-08-09T07:19:04.449Z,23.70
2018-08-09T07:21:32.708Z,23.31
2018-08-09T07:24:01.030Z,22.91
2018-08-09T07:26:29.368Z,23.20
2018-08-09T07:28:57.453Z,23.14
2018-08-09T07:31:25.651Z,23.34
2018-08-09T07:33:54.123Z,22.80
2018-08-09T07:36:22.186Z,22.42
2018-08-09T07:38:50.393Z,21.99
2018-08-09T07:41:19.318Z,21.46
2018-08-09T07:43:47.878Z,20.20
2018-08-09T07:46:16.268Z,20.84
2018-08-09T07:48:44.425Z,21.08
2018-08-09T07:51:12.720Z,20.34
2018-08-09T07:53:41.094Z,19.36
2018-08-09T07:56:09.690Z,18.95
2018-08-09T07:58:38.078Z,19.41
2018-08-09T08:01:06.285Z,20.03
2018-08-09T08:03:34.564Z,18.98
2018-08-09T08:06:02.812Z,19.16
2018-08-09T08:08:31.106Z,18.99
2018-08-09T08:10:59.397Z,18.26
2018-08-09T08:13:27.675Z,18.13
2018-08-09T08:15:55.894Z,18.56
2018-08-09T08:18:24.145Z,18.63
2018-08-09T08:20:52.392Z,18.11
2018-08-09T08:23:20.693Z,17.61
2018-08-09T08:25:49.007Z,16.92
2018-08-09T08:28:17.245Z,16.54
2018-08-09T08:30:45.595Z,15.79
2018-08-09T08:33:13.871Z,16.46
2018-08-09T08:35:42.081Z,15.78
2018-08-09T08:38:10.386Z,15.46
2018-08-09T08:40:38.597Z,14.93
2018-08-09T08:43:06.744Z,14.78
2018-08-09T08:45:34.971Z,14.28
2018-08-09T08:48:03.288Z,15.60
2018-08-09T08:50:31.542Z,14.69
2018-08-09T08:52:59.772Z,13.66
2018-08-09T08:55:28.002Z,13.13
2018-08-09T08:57:56.220Z,12.74
2018-08-09T09:00:24.463Z,14.10
2018-08-09T09:02:52.685Z,14.10
2018-08-09T09:05:20.960Z,13.33
2018-08-09T09:07:49.324Z,13.37
2018-08-09T09:10:17.514Z,12.94
2018-08-09T09:12:45.860Z,12.28
2018-08-09T09:15:15.240Z,11.61
2018-08-09T09:17:44.193Z,11.39
2018-08-09T09:20:14.010Z,10.17
2018-08-09T09:22:42.977Z,10.49
2018-08-09T09:25:12.715Z,10.50
2018-08-09T09:27:41.028Z,10.79
2018-08-09T09:30:14.574Z,10.74
2018-08-09T09:32:43.256Z,10.65
2018-08-09T09:35:11.576Z,11.09
2018-08-09T09:37:40.855Z,10.29
2018-08-09T09:40:09.562Z,10.30
2018-08-09T09:42:38.426Z,10.26
2018-08-09T09:45:13.852Z,9.81
2018-08-09T09:47:44.806Z,10.24
2018-08-09T09:50:13.227Z,12.33
2018-08-09T09:52:41.880Z,11.37
2018-08-09T09:55:10.819Z,9.87
2018-08-09T09:57:39.024Z,10.27
2018-08-09T10:00:14.222Z,10.16
2018-08-09T10:02:42.911Z,8.70
2018-08-09T10:05:11.127Z,8.63
2018-08-09T10:07:39.695Z,8.74
2018-08-09T10:10:08.624Z,9.12
2018-08-09T10:12:36.986Z,8.71
2018-08-09T10:15:05.419Z,8.95
2018-08-09T10:17:33.700Z,7.99
2018-08-09T10:20:01.887Z,7.84
2018-08-09T10:22:30.157Z,8.63
2018-08-09T10:24:58.379Z,8.34
2018-08-09T10:27:26.612Z,8.99
2018-08-09T10:29:54.915Z,7.69
2018-08-09T10:32:23.675Z,7.36
2018-08-09T10:34:52.101Z,7.78
2018-08-09T10:37:20.369Z,9.27
2018-08-09T10:39:48.595Z,8.26
2018-08-09T10:42:16.717Z,9.70
2018-08-09T10:44:44.819Z,9.87
2018-08-09T10:47:13.199Z,9.42
2018-08-09T10:49:41.402Z,8.59
2018-08-09T10:52:09.641Z,8.52
2018-08-09T10:54:41.883Z,7.70
2018-08-09T10:57:14.539Z,8.27
2018-08-09T10:59:47.034Z,7.55
2018-08-09T11:02:15.343Z,7.81
2018-08-09T11:04:43.680Z,9.16
2018-08-09T11:07:12.642Z,9.58
2018-08-09T11:09:40.914Z,9.23
2018-08-09T11:12:09.176Z,9.01
2018-08-09T11:14:37.457Z,9.73
2018-08-09T11:17:06.103Z,9.07
2018-08-09T11:19:37.690Z,8.95
2018-08-09T11:24:44.446Z,8.85
2018-08-09T11:27:12.712Z,7.81
2018-08-09T11:29:40.896Z,8.96
2018-08-09T11:32:09.093Z,8.60
2018-08-09T11:34:37.325Z,8.49
2018-08-09T11:37:06.207Z,8.15
2018-08-09T11:39:35.194Z,7.15
2018-08-09T11:42:03.638Z,6.95
2018-08-09T11:44:32.288Z,6.91
2018-08-09T11:47:01.298Z,7.60
2018-08-09T11:49:30.686Z,8.93
2018-08-09T11:51:59.168Z,9.01
2018-08-09T11:54:27.456Z,9.25
2018-08-09T11:56:55.801Z,9.23
2018-08-09T11:59:24.206Z,9.88
2018-08-09T12:01:52.622Z,8.85
2018-08-09T12:04:21.862Z,9.37
2018-08-09T12:06:50.050Z,10.60
2018-08-09T12:09:18.385Z,12.23
2018-08-09T12:11:46.672Z,10.52
2018-08-09T12:14:15.749Z,10.38
2018-08-09T12:16:44.174Z,12.67
2018-08-09T12:19:12.509Z,14.47
2018-08-09T12:21:41.191Z,14.20
2018-08-09T12:24:09.592Z,13.24
2018-08-09T12:26:37.920Z,13.85
2018-08-09T12:29:06.825Z,15.29
2018-08-09T12:31:35.394Z,16.20
2018-08-09T12:34:03.886Z,16.90
2018-08-09T12:36:32.110Z,17.94
2018-08-09T12:39:00.414Z,14.15
2018-08-09T12:41:28.906Z,13.48
2018-08-09T12:43:57.260Z,14.47
2018-08-09T12:46:25.506Z,14.33
2018-08-09T12:48:54.866Z,14.20
2018-08-09T12:51:31.056Z,16.51
2018-08-09T12:53:59.330Z,18.75
2018-08-09T12:56:29.629Z,21.83
2018-08-09T12:58:58.487Z,21.11
2018-08-09T13:01:26.950Z,16.95
2018-08-09T13:03:58.659Z,16.07
2018-08-09T13:06:27.131Z,17.04
2018-08-09T13:08:56.450Z,18.47
2018-08-09T13:11:25.047Z,16.44
2018-08-09T13:13:53.572Z,16.40
2018-08-09T13:16:23.906Z,14.20
2018-08-09T13:19:03.812Z,13.16
2018-08-09T13:21:38.608Z,16.41
2018-08-09T13:24:09.825Z,18.00
2018-08-09T13:26:38.444Z,16.44
2018-08-09T13:29:07.224Z,14.79
2018-08-09T13:31:39.549Z,12.86
2018-08-09T13:34:15.204Z,11.69
2018-08-09T13:36:45.701Z,11.91
2018-08-09T13:39:17.218Z,13.42
2018-08-09T13:41:45.559Z,13.68
2018-08-09T13:44:14.303Z,13.79
2018-08-09T13:46:42.603Z,15.36
2018-08-09T13:49:10.762Z,16.65
2018-08-09T13:51:39.023Z,16.61
2018-08-09T13:57:02.792Z,14.67
2018-08-09T13:59:44.173Z,16.53
2018-08-09T14:02:13.358Z,15.51
2018-08-09T14:04:41.717Z,13.50
2018-08-09T14:07:12.227Z,13.23
2018-08-09T14:09:46.811Z,14.00
2018-08-09T14:12:15.149Z,14.50
2018-08-09T14:14:43.457Z,16.74
2018-08-09T14:17:14.435Z,18.21
2018-08-09T14:19:42.728Z,18.91
2018-08-09T14:22:10.947Z,19.39
2018-08-09T14:24:39.312Z,20.12
2018-08-09T14:27:14.151Z,20.75
2018-08-09T14:29:49.721Z,21.02
2018-08-09T14:32:18.181Z,20.21
2018-08-09T14:34:49.225Z,20.88
2018-08-09T14:37:20.221Z,22.33
2018-08-09T14:39:48.529Z,22.32
2018-08-09T14:42:17.662Z,21.62
2018-08-09T14:44:45.942Z,22.10
2018-08-09T14:47:17.192Z,22.41
2018-08-09T14:49:50.653Z,22.28
2018-08-09T14:52:18.876Z,21.38
2018-08-09T14:54:47.224Z,21.64
2018-08-09T14:57:15.432Z,22.17
2018-08-09T14:59:43.719Z,21.07
2018-08-09T15:02:11.990Z,22.17
2018-08-09T15:04:40.170Z,21.86
2018-08-09T15:07:08.482Z,21.97
2018-08-09T15:09:36.620Z,22.14
2018-08-09T15:12:06.157Z,21.95
2018-08-09T15:14:34.470Z,21.55
2018-08-09T15:17:02.887Z,22.35
2018-08-09T15:19:31.250Z,22.42
2018-08-09T15:21:59.652Z,23.09
2018-08-09T15:24:34.697Z,22.40
2018-08-09T15:27:12.061Z,23.73
2018-08-09T15:29:42.382Z,23.03
2018-08-09T15:32:11.973Z,24.10
2018-08-09T15:51:57.264Z,23.23
2018-08-09T15:54:26.019Z,22.70
2018-08-09T15:56:57.736Z,23.71
2018-08-09T15:59:26.178Z,23.90
2018-08-09T16:01:54.490Z,24.12
2018-08-09T16:04:22.745Z,23.81
2018-08-09T16:06:50.988Z,24.24
2018-08-09T16:09:19.251Z,23.39
2018-08-09T16:11:47.470Z,24.11
2018-08-09T16:14:15.845Z,24.01
2018-08-09T16:16:44.066Z,23.95
2018-08-09T16:19:12.432Z,24.04
2018-08-09T16:21:40.641Z,24.34
2018-08-09T16:24:08.950Z,23.53
2018-08-09T16:26:39.446Z,24.37
2018-08-09T16:29:07.732Z,24.57
2018-08-09T16:31:36.336Z,24.33
2018-08-09T16:34:04.814Z,24.65
2018-08-09T16:36:33.166Z,24.95
2018-08-09T16:39:01.714Z,25.60
2018-08-09T16:41:29.939Z,26.25
2018-08-09T16:43:58.297Z,26.33
2018-08-09T16:46:27.859Z,26.34
2018-08-09T16:48:55.994Z,26.03
2018-08-09T16:51:24.308Z,26.21
2018-08-09T16:53:52.622Z,25.77
2018-08-09T16:56:20.957Z,26.35
2018-08-09T16:58:49.146Z,26.47
2018-08-09T17:01:17.438Z,25.99
2018-08-09T17:03:45.727Z,26.71
2018-08-09T17:06:14.244Z,26.14
2018-08-09T17:08:42.619Z,27.47
2018-08-09T17:11:11.068Z,26.97
2018-08-09T17:13:39.549Z,29.58
2018-08-09T17:16:08.946Z,30.71
2018-08-09T17:18:37.416Z,30.47
2018-08-09T17:21:06.217Z,33.15
2018-08-09T17:23:34.560Z,41.23
2018-08-09T17:26:02.918Z,39.28
2018-08-09T17:28:31.492Z,42.62
2018-08-09T17:30:59.790Z,45.71
2018-08-09T17:33:28.336Z,44.40
2018-08-09T17:35:56.695Z,42.31
2018-08-09T17:38:25.124Z,43.20
2018-08-09T17:40:53.456Z,44.39
2018-08-09T17:43:21.843Z,47.37
2018-08-09T17:45:50.279Z,47.84
2018-08-09T17:48:18.788Z,44.14
2018-08-09T17:50:47.122Z,47.31
2018-08-09T17:53:15.786Z,50.17
2018-08-09T17:55:44.194Z,51.58
2018-08-09T17:58:13.318Z,48.48
2018-08-09T18:00:41.821Z,47.61
2018-08-09T18:03:10.346Z,48.21
2018-08-09T18:05:38.616Z,49.61
2018-08-09T18:08:07.291Z,48.47
2018-08-09T18:10:36.593Z,49.46
2018-08-09T18:13:12.972Z,51.97
2018-08-09T18:15:43.943Z,56.84
2018-08-09T18:18:13.291Z,63.09
2018-08-09T18:20:42.871Z,69.37
2018-08-09T18:23:11.415Z,66.99
2018-08-09T18:25:39.908Z,64.19
2018-08-09T18:28:09.383Z,66.43
2018-08-09T18:30:37.856Z,65.46
2018-08-09T18:33:06.367Z,64.91
2018-08-09T18:35:41.510Z,64.87
2018-08-09T18:51:59.698Z,65.51
2018-08-09T18:54:27.833Z,65.98
2018-08-09T18:56:56.195Z,64.90
2018-08-09T18:59:24.910Z,66.19
2018-08-09T19:01:53.749Z,65.56
2018-08-09T19:04:22.226Z,65.87
2018-08-09T19:06:50.463Z,64.88
2018-08-09T19:09:18.742Z,65.95
2018-08-09T19:11:46.993Z,63.88
2018-08-09T19:14:15.177Z,66.56
2018-08-09T19:16:43.673Z,65.94
2018-08-09T19:19:13.325Z,65.65
2018-08-09T19:21:48.465Z,67.10
2018-08-09T19:24:16.987Z,65.92
2018-08-09T19:26:46.061Z,66.46
2018-08-09T19:29:14.475Z,66.66
2018-08-09T19:31:43.213Z,66.67
2018-08-09T19:34:11.711Z,66.39
2018-08-09T19:36:40.346Z,64.40
2018-08-09T19:39:12.733Z,63.88
2018-08-09T19:41:42.201Z,65.59
2018-08-09T19:44:11.031Z,67.26
2018-08-09T19:46:40.545Z,67.13
2018-08-09T19:49:09.143Z,66.92
2018-08-09T19:51:37.512Z,66.76
2018-08-09T19:54:09.047Z,66.15
2018-08-09T19:56:37.683Z,65.93
2018-08-09T19:59:06.389Z,65.51
2018-08-09T20:01:35.022Z,67.09
2018-08-09T20:04:03.674Z,66.20
2018-08-09T20:06:32.059Z,66.56
2018-08-09T20:09:00.395Z,66.34
2018-08-09T20:11:28.922Z,67.83
2018-08-09T20:13:58.050Z,67.74
2018-08-09T20:16:26.735Z,68.33
2018-08-09T20:18:54.954Z,68.67
2018-08-09T20:21:23.280Z,68.21
2018-08-09T20:23:51.565Z,68.96
2018-08-09T20:26:20.436Z,68.27
2018-08-09T20:28:48.584Z,67.84
2018-08-09T20:31:16.856Z,67.67
2018-08-09T20:33:45.132Z,67.82
2018-08-09T20:36:13.266Z,67.30
2018-08-09T20:38:41.489Z,66.38
2018-08-09T20:41:09.766Z,67.48
2018-08-09T20:43:39.401Z,67.40
2018-08-09T20:46:07.922Z,68.21
2018-08-09T20:48:36.268Z,67.58
2018-08-09T20:51:04.645Z,66.91
2018-08-09T20:53:33.556Z,67.02
2018-08-09T20:56:01.890Z,67.51
2018-08-09T20:58:30.381Z,68.17
2018-08-09T21:00:58.658Z,67.33
2018-08-09T21:03:27.009Z,67.54
2018-08-09T21:05:55.365Z,67.68
2018-08-09T21:08:23.704Z,66.89
2018-08-09T21:10:52.239Z,67.27
2018-08-09T21:13:21.720Z,65.40
2018-08-09T21:15:50.118Z,64.93
2018-08-09T21:18:18.367Z,64.21
2018-08-09T21:20:46.563Z,63.76
2018-08-09T21:23:15.713Z,62.85
2018-08-09T21:25:43.915Z,63.38
2018-08-09T21:28:12.218Z,61.86
2018-08-09T21:30:40.531Z,60.92
2018-08-09T21:33:08.764Z,61.68
2018-08-09T21:35:36.945Z,59.94
2018-08-09T21:38:05.187Z,60.06
2018-08-09T21:40:33.413Z,61.17
2018-08-09T21:43:01.691Z,60.36
2018-08-09T21:45:29.975Z,61.28
2018-08-09T21:47:58.263Z,60.63
2018-08-09T21:50:29.257Z,61.41
2018-08-09T21:52:57.739Z,60.71
2018-08-09T21:55:26.107Z,61.64
2018-08-09T21:57:54.406Z,60.26
2018-08-09T22:00:51.973Z,59.50
2018-08-09T22:03:23.752Z,58.66
2018-08-09T22:05:57.805Z,58.91
2018-08-09T22:08:31.547Z,59.17
2018-08-09T22:11:05.512Z,57.74
2018-08-09T22:13:39.574Z,58.85
2018-08-09T22:16:13.675Z,60.37
2018-08-09T22:18:47.667Z,60.03
2018-08-09T22:21:21.828Z,60.53
2018-08-09T22:23:50.072Z,60.97
2018-08-09T22:26:18.378Z,60.65
2018-08-09T22:28:46.954Z,61.43
2018-08-09T22:31:15.626Z,61.55
2018-08-09T22:33:43.975Z,62.98
2018-08-09T22:36:12.232Z,62.85
2018-08-09T22:38:40.868Z,60.67
2018-08-09T22:41:09.146Z,60.53
2018-08-09T22:43:38.138Z,60.30
2018-08-09T22:46:06.548Z,58.89
2018-08-09T22:48:35.000Z,59.13
2018-08-09T22:51:03.699Z,58.89
2018-08-09T22:53:32.112Z,59.16
2018-08-09T22:56:00.432Z,59.96
2018-08-09T22:58:28.734Z,59.26
2018-08-09T23:00:57.042Z,58.65
2018-08-09T23:03:32.892Z,59.85
2018-08-09T23:06:01.228Z,59.49
2018-08-09T23:08:29.818Z,59.60
2018-08-09T23:10:58.160Z,58.01
2018-08-09T23:13:26.430Z,56.67
2018-08-09T23:15:54.652Z,56.38
2018-08-09T23:18:22.867Z,54.91
2018-08-09T23:20:51.194Z,54.77
2018-08-09T23:23:19.459Z,55.22
2018-08-09T23:25:47.987Z,55.39
2018-08-09T23:28:16.274Z,55.26
2018-08-09T23:30:44.550Z,54.58
2018-08-09T23:33:12.847Z,54.87
2018-08-09T23:35:41.043Z,54.83
2018-08-09T23:38:09.265Z,54.44
2018-08-09T23:40:37.533Z,54.23
2018-08-09T23:43:05.906Z,53.92
2018-08-09T23:45:34.179Z,53.42
2018-08-09T23:48:02.322Z,53.26
2018-08-09T23:50:30.987Z,53.33
2018-08-09T23:52:59.244Z,53.26
2018-08-09T23:55:27.521Z,52.83
2018-08-09T23:57:56.357Z,52.14
